sensor_id;sensor_type;location;lat;lon;timestamp;P1;durP1;ratioP1;P2;durP2;ratioP2
3068;SDS011;1545;51.728;8.796;2023-03-01T00:00:54;37.47;;;18.33;;
3068;SDS011;1545;51.728;8.796;2023-03-01T00:03:19;32.63;;;16.63;;
3068;SDS011;1545;51.728;8.796;2023-03-01T00:05:45;32.10;;;15.97;;
3068;SDS011;1545;51.728;8.796;2023-03-01T00:08:11;37.23;;;16.90;;
3068;SDS011;1545;51.728;8.796;2023-03-01T00:10:36;32.30;;;15.97;;
3068;SDS011;1545;51.728;8.796;2023-03-01T00:13:02;30.77;;;16.17;;
3068;SDS011;1545;51.728;8.796;2023-03-01T00:15:30;35.90;;;16.60;;
3068;SDS011;1545;51.728;8.796;2023-03-01T00:17:55;29.67;;;15.87;;
3068;SDS011;1545;51.728;8.796;2023-03-01T00:20:21;37.13;;;17.13;;
3068;SDS011;1545;51.728;8.796;2023-03-01T00:22:47;37.67;;;17.87;;
3068;SDS011;1545;51.728;8.796;2023-03-01T00:25:13;32.37;;;16.97;;
3068;SDS011;1545;51.728;8.796;2023-03-01T00:27:38;34.83;;;16.67;;
3068;SDS011;1545;51.728;8.796;2023-03-01T00:30:04;44.63;;;17.13;;
3068;SDS011;1545;51.728;8.796;2023-03-01T00:32:30;33.50;;;17.13;;
3068;SDS011;1545;51.728;8.796;2023-03-01T00:34:55;37.00;;;17.43;;
3068;SDS011;1545;51.728;8.796;2023-03-01T00:37:21;35.30;;;17.43;;
3068;SDS011;1545;51.728;8.796;2023-03-01T00:39:47;33.73;;;17.60;;
3068;SDS011;1545;51.728;8.796;2023-03-01T00:42:13;36.93;;;17.70;;
3068;SDS011;1545;51.728;8.796;2023-03-01T00:44:38;34.23;;;16.80;;
3068;SDS011;1545;51.728;8.796;2023-03-01T00:47:04;33.70;;;16.77;;
3068;SDS011;1545;51.728;8.796;2023-03-01T00:49:29;37.03;;;17.70;;
3068;SDS011;1545;51.728;8.796;2023-03-01T00:51:55;39.43;;;18.23;;
3068;SDS011;1545;51.728;8.796;2023-03-01T00:54:20;33.47;;;16.87;;
3068;SDS011;1545;51.728;8.796;2023-03-01T00:56:46;36.10;;;17.43;;
3068;SDS011;1545;51.728;8.796;2023-03-01T00:59:11;37.50;;;17.20;;
3068;SDS011;1545;51.728;8.796;2023-03-01T01:01:37;33.43;;;16.40;;
3068;SDS011;1545;51.728;8.796;2023-03-01T01:04:05;34.27;;;16.97;;
3068;SDS011;1545;51.728;8.796;2023-03-01T01:06:33;31.80;;;17.03;;
3068;SDS011;1545;51.728;8.796;2023-03-01T01:09:00;39.63;;;16.83;;
3068;SDS011;1545;51.728;8.796;2023-03-01T01:11:28;32.47;;;16.27;;
3068;SDS011;1545;51.728;8.796;2023-03-01T01:13:54;35.40;;;16.60;;
3068;SDS011;1545;51.728;8.796;2023-03-01T01:16:21;30.27;;;16.23;;
3068;SDS011;1545;51.728;8.796;2023-03-01T01:18:49;30.43;;;15.93;;
3068;SDS011;1545;51.728;8.796;2023-03-01T01:21:15;32.67;;;15.47;;
3068;SDS011;1545;51.728;8.796;2023-03-01T01:23:42;29.77;;;14.90;;
3068;SDS011;1545;51.728;8.796;2023-03-01T01:26:10;30.23;;;15.03;;
3068;SDS011;1545;51.728;8.796;2023-03-01T01:28:41;29.40;;;14.97;;
3068;SDS011;1545;51.728;8.796;2023-03-01T01:31:07;30.67;;;15.33;;
3068;SDS011;1545;51.728;8.796;2023-03-01T01:33:33;28.83;;;14.60;;
3068;SDS011;1545;51.728;8.796;2023-03-01T01:35:59;32.87;;;15.93;;
3068;SDS011;1545;51.728;8.796;2023-03-01T01:38:25;31.30;;;15.33;;
3068;SDS011;1545;51.728;8.796;2023-03-01T01:40:50;29.47;;;14.43;;
3068;SDS011;1545;51.728;8.796;2023-03-01T01:45:48;27.67;;;14.77;;
3068;SDS011;1545;51.728;8.796;2023-03-01T01:48:16;31.20;;;15.70;;
3068;SDS011;1545;51.728;8.796;2023-03-01T01:50:45;29.60;;;14.57;;
3068;SDS011;1545;51.728;8.796;2023-03-01T01:53:25;33.03;;;16.20;;
3068;SDS011;1545;51.728;8.796;2023-03-01T01:55:52;30.87;;;15.10;;
3068;SDS011;1545;51.728;8.796;2023-03-01T01:58:22;32.50;;;16.10;;
3068;SDS011;1545;51.728;8.796;2023-03-01T02:00:50;33.77;;;16.43;;
3068;SDS011;1545;51.728;8.796;2023-03-01T02:03:17;34.33;;;16.13;;
3068;SDS011;1545;51.728;8.796;2023-03-01T02:05:52;31.30;;;15.77;;
3068;SDS011;1545;51.728;8.796;2023-03-01T02:08:25;30.30;;;15.20;;
3068;SDS011;1545;51.728;8.796;2023-03-01T02:10:52;39.20;;;16.33;;
3068;SDS011;1545;51.728;8.796;2023-03-01T02:13:20;30.65;;;15.50;;
3068;SDS011;1545;51.728;8.796;2023-03-01T02:15:46;34.53;;;15.77;;
3068;SDS011;1545;51.728;8.796;2023-03-01T02:18:12;36.23;;;15.67;;
3068;SDS011;1545;51.728;8.796;2023-03-01T02:23:44;32.90;;;15.23;;
3068;SDS011;1545;51.728;8.796;2023-03-01T02:26:11;29.77;;;14.23;;
3068;SDS011;1545;51.728;8.796;2023-03-01T02:28:59;29.03;;;14.70;;
3068;SDS011;1545;51.728;8.796;2023-03-01T02:31:25;33.00;;;14.77;;
3068;SDS011;1545;51.728;8.796;2023-03-01T02:34:13;28.67;;;13.97;;
3068;SDS011;1545;51.728;8.796;2023-03-01T02:36:45;31.53;;;14.03;;
3068;SDS011;1545;51.728;8.796;2023-03-01T02:39:18;28.57;;;15.07;;
3068;SDS011;1545;51.728;8.796;2023-03-01T02:41:50;27.70;;;14.70;;
3068;SDS011;1545;51.728;8.796;2023-03-01T02:44:18;28.17;;;14.97;;
3068;SDS011;1545;51.728;8.796;2023-03-01T02:46:45;31.50;;;14.67;;
3068;SDS011;1545;51.728;8.796;2023-03-01T02:49:32;33.40;;;15.43;;
3068;SDS011;1545;51.728;8.796;2023-03-01T02:52:16;34.33;;;15.07;;
3068;SDS011;1545;51.728;8.796;2023-03-01T02:54:59;32.83;;;15.97;;
3068;SDS011;1545;51.728;8.796;2023-03-01T02:57:43;36.67;;;16.37;;
3068;SDS011;1545;51.728;8.796;2023-03-01T03:00:13;35.20;;;15.97;;
3068;SDS011;1545;51.728;8.796;2023-03-01T03:02:44;35.87;;;15.47;;
3068;SDS011;1545;51.728;8.796;2023-03-01T03:05:12;32.97;;;16.57;;
3068;SDS011;1545;51.728;8.796;2023-03-01T03:07:44;31.30;;;16.00;;
3068;SDS011;1545;51.728;8.796;2023-03-01T03:10:12;35.17;;;16.13;;
3068;SDS011;1545;51.728;8.796;2023-03-01T03:12:40;30.33;;;15.70;;
3068;SDS011;1545;51.728;8.796;2023-03-01T03:15:07;31.43;;;16.13;;
3068;SDS011;1545;51.728;8.796;2023-03-01T03:17:37;33.00;;;16.57;;
3068;SDS011;1545;51.728;8.796;2023-03-01T03:20:05;32.07;;;15.80;;
3068;SDS011;1545;51.728;8.796;2023-03-01T03:22:36;33.83;;;15.63;;
3068;SDS011;1545;51.728;8.796;2023-03-01T03:25:05;30.03;;;14.93;;
3068;SDS011;1545;51.728;8.796;2023-03-01T03:27:35;30.47;;;14.17;;
3068;SDS011;1545;51.728;8.796;2023-03-01T03:30:02;29.70;;;15.30;;
3068;SDS011;1545;51.728;8.796;2023-03-01T03:32:33;33.50;;;15.83;;
3068;SDS011;1545;51.728;8.796;2023-03-01T03:35:00;29.37;;;15.17;;
3068;SDS011;1545;51.728;8.796;2023-03-01T03:37:25;34.63;;;16.00;;
3068;SDS011;1545;51.728;8.796;2023-03-01T03:40:10;30.13;;;15.07;;
3068;SDS011;1545;51.728;8.796;2023-03-01T03:42:40;30.67;;;15.33;;
3068;SDS011;1545;51.728;8.796;2023-03-01T03:45:06;32.83;;;16.47;;
3068;SDS011;1545;51.728;8.796;2023-03-01T03:47:32;35.67;;;16.23;;
3068;SDS011;1545;51.728;8.796;2023-03-01T03:49:57;28.90;;;15.03;;
3068;SDS011;1545;51.728;8.796;2023-03-01T03:52:23;33.43;;;16.20;;
3068;SDS011;1545;51.728;8.796;2023-03-01T03:54:48;31.67;;;15.90;;
3068;SDS011;1545;51.728;8.796;2023-03-01T03:57:14;33.23;;;15.73;;
3068;SDS011;1545;51.728;8.796;2023-03-01T03:59:39;33.43;;;17.23;;
3068;SDS011;1545;51.728;8.796;2023-03-01T04:02:05;56.63;;;17.97;;
3068;SDS011;1545;51.728;8.796;2023-03-01T04:04:32;37.27;;;16.43;;
3068;SDS011;1545;51.728;8.796;2023-03-01T04:06:58;39.93;;;16.63;;
3068;SDS011;1545;51.728;8.796;2023-03-01T04:09:23;37.83;;;17.87;;
3068;SDS011;1545;51.728;8.796;2023-03-01T04:11:49;33.20;;;16.13;;
3068;SDS011;1545;51.728;8.796;2023-03-01T04:14:14;29.60;;;15.13;;
3068;SDS011;1545;51.728;8.796;2023-03-01T04:16:40;34.60;;;16.03;;
3068;SDS011;1545;51.728;8.796;2023-03-01T04:19:05;32.43;;;16.33;;
3068;SDS011;1545;51.728;8.796;2023-03-01T04:21:31;35.97;;;16.77;;
3068;SDS011;1545;51.728;8.796;2023-03-01T04:23:56;38.53;;;15.87;;
3068;SDS011;1545;51.728;8.796;2023-03-01T04:26:22;29.83;;;15.20;;
3068;SDS011;1545;51.728;8.796;2023-03-01T04:28:47;33.93;;;15.13;;
3068;SDS011;1545;51.728;8.796;2023-03-01T04:31:16;36.67;;;16.53;;
3068;SDS011;1545;51.728;8.796;2023-03-01T04:33:53;33.07;;;15.70;;
3068;SDS011;1545;51.728;8.796;2023-03-01T04:36:21;29.00;;;15.33;;
3068;SDS011;1545;51.728;8.796;2023-03-01T04:38:48;31.67;;;15.57;;
3068;SDS011;1545;51.728;8.796;2023-03-01T04:41:14;32.27;;;15.97;;
3068;SDS011;1545;51.728;8.796;2023-03-01T04:43:41;31.53;;;16.30;;
3068;SDS011;1545;51.728;8.796;2023-03-01T04:46:07;30.23;;;16.03;;
3068;SDS011;1545;51.728;8.796;2023-03-01T04:48:36;32.40;;;16.33;;
3068;SDS011;1545;51.728;8.796;2023-03-01T04:51:03;34.70;;;16.07;;
3068;SDS011;1545;51.728;8.796;2023-03-01T04:53:29;35.00;;;16.10;;
3068;SDS011;1545;51.728;8.796;2023-03-01T04:55:55;33.77;;;15.87;;
3068;SDS011;1545;51.728;8.796;2023-03-01T04:58:25;32.50;;;16.33;;
3068;SDS011;1545;51.728;8.796;2023-03-01T05:00:52;30.00;;;15.93;;
3068;SDS011;1545;51.728;8.796;2023-03-01T05:03:18;32.93;;;16.63;;
3068;SDS011;1545;51.728;8.796;2023-03-01T05:05:45;36.40;;;17.10;;
3068;SDS011;1545;51.728;8.796;2023-03-01T05:08:12;37.23;;;16.17;;
3068;SDS011;1545;51.728;8.796;2023-03-01T05:10:42;32.13;;;16.10;;
3068;SDS011;1545;51.728;8.796;2023-03-01T05:13:10;33.63;;;16.67;;
3068;SDS011;1545;51.728;8.796;2023-03-01T05:15:38;33.67;;;17.13;;
3068;SDS011;1545;51.728;8.796;2023-03-01T05:18:04;35.27;;;17.23;;
3068;SDS011;1545;51.728;8.796;2023-03-01T05:20:36;33.93;;;16.77;;
3068;SDS011;1545;51.728;8.796;2023-03-01T05:23:02;32.13;;;16.17;;
3068;SDS011;1545;51.728;8.796;2023-03-01T05:25:30;32.03;;;16.27;;
3068;SDS011;1545;51.728;8.796;2023-03-01T05:27:57;38.83;;;17.00;;
3068;SDS011;1545;51.728;8.796;2023-03-01T05:30:29;33.17;;;16.37;;
3068;SDS011;1545;51.728;8.796;2023-03-01T05:32:55;33.67;;;16.67;;
3068;SDS011;1545;51.728;8.796;2023-03-01T05:35:21;32.00;;;16.93;;
3068;SDS011;1545;51.728;8.796;2023-03-01T05:37:47;46.73;;;16.37;;
3068;SDS011;1545;51.728;8.796;2023-03-01T05:40:18;34.97;;;16.70;;
3068;SDS011;1545;51.728;8.796;2023-03-01T05:42:49;36.10;;;17.27;;
3068;SDS011;1545;51.728;8.796;2023-03-01T05:45:17;40.37;;;16.77;;
3068;SDS011;1545;51.728;8.796;2023-03-01T05:47:43;41.07;;;17.53;;
3068;SDS011;1545;51.728;8.796;2023-03-01T05:50:14;39.13;;;17.10;;
3068;SDS011;1545;51.728;8.796;2023-03-01T05:52:48;36.57;;;18.13;;
3068;SDS011;1545;51.728;8.796;2023-03-01T05:55:16;38.37;;;17.03;;
3068;SDS011;1545;51.728;8.796;2023-03-01T05:57:43;35.93;;;18.53;;
3068;SDS011;1545;51.728;8.796;2023-03-01T06:00:10;32.33;;;15.93;;
3068;SDS011;1545;51.728;8.796;2023-03-01T06:02:36;39.57;;;17.90;;
3068;SDS011;1545;51.728;8.796;2023-03-01T06:05:02;39.90;;;17.33;;
3068;SDS011;1545;51.728;8.796;2023-03-01T06:07:29;39.23;;;17.40;;
3068;SDS011;1545;51.728;8.796;2023-03-01T06:09:55;42.27;;;17.97;;
3068;SDS011;1545;51.728;8.796;2023-03-01T06:12:20;35.07;;;17.17;;
3068;SDS011;1545;51.728;8.796;2023-03-01T06:14:46;37.07;;;17.17;;
3068;SDS011;1545;51.728;8.796;2023-03-01T06:17:12;41.60;;;17.60;;
3068;SDS011;1545;51.728;8.796;2023-03-01T06:19:38;38.90;;;17.37;;
3068;SDS011;1545;51.728;8.796;2023-03-01T06:22:03;33.83;;;16.70;;
3068;SDS011;1545;51.728;8.796;2023-03-01T06:24:29;35.80;;;16.47;;
3068;SDS011;1545;51.728;8.796;2023-03-01T06:26:54;37.83;;;18.00;;
3068;SDS011;1545;51.728;8.796;2023-03-01T06:29:20;32.73;;;17.10;;
3068;SDS011;1545;51.728;8.796;2023-03-01T06:31:47;35.20;;;17.63;;
3068;SDS011;1545;51.728;8.796;2023-03-01T06:34:13;35.57;;;16.70;;
3068;SDS011;1545;51.728;8.796;2023-03-01T06:36:39;36.00;;;17.07;;
3068;SDS011;1545;51.728;8.796;2023-03-01T06:39:05;34.87;;;17.23;;
3068;SDS011;1545;51.728;8.796;2023-03-01T06:41:31;34.87;;;17.67;;
3068;SDS011;1545;51.728;8.796;2023-03-01T06:43:57;47.07;;;18.77;;
3068;SDS011;1545;51.728;8.796;2023-03-01T06:46:23;40.40;;;19.67;;
3068;SDS011;1545;51.728;8.796;2023-03-01T06:48:49;45.43;;;18.60;;
3068;SDS011;1545;51.728;8.796;2023-03-01T06:51:14;36.13;;;18.43;;
3068;SDS011;1545;51.728;8.796;2023-03-01T06:53:40;36.67;;;18.67;;
3068;SDS011;1545;51.728;8.796;2023-03-01T06:56:05;43.07;;;19.30;;
3068;SDS011;1545;51.728;8.796;2023-03-01T06:58:31;42.57;;;19.10;;
3068;SDS011;1545;51.728;8.796;2023-03-01T07:00:56;43.67;;;18.17;;
3068;SDS011;1545;51.728;8.796;2023-03-01T07:03:22;37.10;;;18.53;;
3068;SDS011;1545;51.728;8.796;2023-03-01T07:05:51;40.53;;;17.67;;
3068;SDS011;1545;51.728;8.796;2023-03-01T07:08:17;39.30;;;19.63;;
3068;SDS011;1545;51.728;8.796;2023-03-01T07:10:43;37.73;;;18.63;;
3068;SDS011;1545;51.728;8.796;2023-03-01T07:13:09;41.60;;;18.37;;
3068;SDS011;1545;51.728;8.796;2023-03-01T07:15:34;33.30;;;18.17;;
3068;SDS011;1545;51.728;8.796;2023-03-01T07:18:00;36.43;;;17.73;;
3068;SDS011;1545;51.728;8.796;2023-03-01T07:20:26;32.33;;;18.43;;
3068;SDS011;1545;51.728;8.796;2023-03-01T07:22:52;34.60;;;18.90;;
3068;SDS011;1545;51.728;8.796;2023-03-01T07:25:18;31.23;;;18.60;;
3068;SDS011;1545;51.728;8.796;2023-03-01T07:27:44;35.33;;;19.00;;
3068;SDS011;1545;51.728;8.796;2023-03-01T07:30:14;34.33;;;18.87;;
3068;SDS011;1545;51.728;8.796;2023-03-01T07:32:40;31.37;;;18.43;;
3068;SDS011;1545;51.728;8.796;2023-03-01T07:35:06;38.17;;;19.37;;
3068;SDS011;1545;51.728;8.796;2023-03-01T07:37:31;33.03;;;19.07;;
3068;SDS011;1545;51.728;8.796;2023-03-01T07:39:57;35.07;;;19.30;;
3068;SDS011;1545;51.728;8.796;2023-03-01T07:42:22;36.10;;;18.70;;
3068;SDS011;1545;51.728;8.796;2023-03-01T07:44:48;34.53;;;19.17;;
3068;SDS011;1545;51.728;8.796;2023-03-01T07:47:14;30.20;;;17.87;;
3068;SDS011;1545;51.728;8.796;2023-03-01T07:49:40;37.30;;;19.93;;
3068;SDS011;1545;51.728;8.796;2023-03-01T07:52:06;32.27;;;17.27;;
3068;SDS011;1545;51.728;8.796;2023-03-01T07:54:31;30.33;;;18.27;;
3068;SDS011;1545;51.728;8.796;2023-03-01T07:56:57;31.90;;;18.60;;
3068;SDS011;1545;51.728;8.796;2023-03-01T07:59:22;34.20;;;17.97;;
3068;SDS011;1545;51.728;8.796;2023-03-01T08:01:53;31.47;;;18.07;;
3068;SDS011;1545;51.728;8.796;2023-03-01T08:04:19;32.23;;;18.80;;
3068;SDS011;1545;51.728;8.796;2023-03-01T08:06:45;33.07;;;18.10;;
3068;SDS011;1545;51.728;8.796;2023-03-01T08:09:10;34.17;;;18.93;;
3068;SDS011;1545;51.728;8.796;2023-03-01T08:11:36;30.73;;;17.37;;
3068;SDS011;1545;51.728;8.796;2023-03-01T08:14:02;44.17;;;21.43;;
3068;SDS011;1545;51.728;8.796;2023-03-01T08:16:27;35.90;;;17.50;;
3068;SDS011;1545;51.728;8.796;2023-03-01T08:18:53;28.50;;;16.83;;
3068;SDS011;1545;51.728;8.796;2023-03-01T08:21:21;34.03;;;17.10;;
3068;SDS011;1545;51.728;8.796;2023-03-01T08:23:47;29.90;;;16.73;;
3068;SDS011;1545;51.728;8.796;2023-03-01T08:26:13;34.50;;;17.93;;
3068;SDS011;1545;51.728;8.796;2023-03-01T08:28:43;28.67;;;16.97;;
3068;SDS011;1545;51.728;8.796;2023-03-01T08:31:17;36.97;;;17.70;;
3068;SDS011;1545;51.728;8.796;2023-03-01T08:33:48;36.93;;;16.70;;
3068;SDS011;1545;51.728;8.796;2023-03-01T08:36:19;35.10;;;16.80;;
3068;SDS011;1545;51.728;8.796;2023-03-01T08:38:46;27.10;;;15.63;;
3068;SDS011;1545;51.728;8.796;2023-03-01T08:41:11;29.30;;;15.67;;
3068;SDS011;1545;51.728;8.796;2023-03-01T08:43:37;32.37;;;16.87;;
3068;SDS011;1545;51.728;8.796;2023-03-01T08:46:02;25.47;;;14.07;;
3068;SDS011;1545;51.728;8.796;2023-03-01T08:48:28;26.40;;;13.60;;
3068;SDS011;1545;51.728;8.796;2023-03-01T08:50:54;26.87;;;13.30;;
3068;SDS011;1545;51.728;8.796;2023-03-01T08:53:20;23.00;;;13.10;;
3068;SDS011;1545;51.728;8.796;2023-03-01T08:55:45;27.63;;;13.73;;
3068;SDS011;1545;51.728;8.796;2023-03-01T08:58:11;26.10;;;13.23;;
3068;SDS011;1545;51.728;8.796;2023-03-01T09:00:36;25.57;;;12.30;;
3068;SDS011;1545;51.728;8.796;2023-03-01T09:03:02;21.77;;;12.40;;
3068;SDS011;1545;51.728;8.796;2023-03-01T09:05:27;24.80;;;12.67;;
3068;SDS011;1545;51.728;8.796;2023-03-01T09:07:53;24.73;;;12.40;;
3068;SDS011;1545;51.728;8.796;2023-03-01T09:10:18;23.10;;;11.87;;
3068;SDS011;1545;51.728;8.796;2023-03-01T09:12:44;26.43;;;12.93;;
3068;SDS011;1545;51.728;8.796;2023-03-01T09:15:09;23.00;;;11.93;;
3068;SDS011;1545;51.728;8.796;2023-03-01T09:17:35;25.03;;;11.93;;
3068;SDS011;1545;51.728;8.796;2023-03-01T09:20:01;20.77;;;12.10;;
3068;SDS011;1545;51.728;8.796;2023-03-01T09:22:26;20.53;;;11.70;;
3068;SDS011;1545;51.728;8.796;2023-03-01T09:24:52;21.80;;;11.63;;
3068;SDS011;1545;51.728;8.796;2023-03-01T09:27:17;23.70;;;11.47;;
3068;SDS011;1545;51.728;8.796;2023-03-01T09:29:44;24.87;;;11.70;;
3068;SDS011;1545;51.728;8.796;2023-03-01T09:32:10;24.40;;;12.10;;
3068;SDS011;1545;51.728;8.796;2023-03-01T09:34:36;36.07;;;12.60;;
3068;SDS011;1545;51.728;8.796;2023-03-01T09:37:21;24.23;;;10.90;;
3068;SDS011;1545;51.728;8.796;2023-03-01T09:39:47;31.47;;;12.27;;
3068;SDS011;1545;51.728;8.796;2023-03-01T09:42:13;26.57;;;12.13;;
3068;SDS011;1545;51.728;8.796;2023-03-01T09:47:16;21.40;;;11.80;;
3068;SDS011;1545;51.728;8.796;2023-03-01T09:50:04;23.83;;;11.50;;
3068;SDS011;1545;51.728;8.796;2023-03-01T09:52:46;29.80;;;11.43;;
3068;SDS011;1545;51.728;8.796;2023-03-01T10:01:23;22.40;;;11.00;;
3068;SDS011;1545;51.728;8.796;2023-03-01T10:09:37;19.93;;;11.00;;
3068;SDS011;1545;51.728;8.796;2023-03-01T10:12:07;22.70;;;11.17;;
3068;SDS011;1545;51.728;8.796;2023-03-01T10:14:38;17.97;;;10.23;;
3068;SDS011;1545;51.728;8.796;2023-03-01T10:17:12;21.97;;;10.97;;
3068;SDS011;1545;51.728;8.796;2023-03-01T10:20:08;21.40;;;11.43;;
3068;SDS011;1545;51.728;8.796;2023-03-01T10:22:40;23.03;;;11.37;;
3068;SDS011;1545;51.728;8.796;2023-03-01T10:25:05;22.03;;;11.87;;
3068;SDS011;1545;51.728;8.796;2023-03-01T10:27:53;20.97;;;11.23;;
3068;SDS011;1545;51.728;8.796;2023-03-01T10:30:40;24.77;;;11.27;;
3068;SDS011;1545;51.728;8.796;2023-03-01T10:35:54;20.10;;;10.80;;
3068;SDS011;1545;51.728;8.796;2023-03-01T10:38:20;20.13;;;10.63;;
3068;SDS011;1545;51.728;8.796;2023-03-01T10:41:05;20.00;;;11.50;;
3068;SDS011;1545;51.728;8.796;2023-03-01T10:43:45;22.53;;;11.23;;
3068;SDS011;1545;51.728;8.796;2023-03-01T10:46:21;19.80;;;10.83;;
3068;SDS011;1545;51.728;8.796;2023-03-01T10:49:12;19.50;;;10.40;;
3068;SDS011;1545;51.728;8.796;2023-03-01T10:51:44;22.27;;;11.40;;
3068;SDS011;1545;51.728;8.796;2023-03-01T10:54:22;22.83;;;11.20;;
3068;SDS011;1545;51.728;8.796;2023-03-01T10:56:54;23.47;;;10.50;;
3068;SDS011;1545;51.728;8.796;2023-03-01T10:59:31;18.70;;;10.67;;
3068;SDS011;1545;51.728;8.796;2023-03-01T11:02:03;28.53;;;11.53;;
3068;SDS011;1545;51.728;8.796;2023-03-01T11:04:39;20.97;;;10.50;;
3068;SDS011;1545;51.728;8.796;2023-03-01T11:07:20;20.77;;;10.67;;
3068;SDS011;1545;51.728;8.796;2023-03-01T11:09:46;26.73;;;10.97;;
3068;SDS011;1545;51.728;8.796;2023-03-01T11:12:13;22.10;;;11.07;;
3068;SDS011;1545;51.728;8.796;2023-03-01T11:14:46;22.50;;;11.60;;
3068;SDS011;1545;51.728;8.796;2023-03-01T11:17:21;18.60;;;10.90;;
3068;SDS011;1545;51.728;8.796;2023-03-01T11:20:05;23.63;;;11.50;;
3068;SDS011;1545;51.728;8.796;2023-03-01T11:22:31;20.90;;;12.03;;
3068;SDS011;1545;51.728;8.796;2023-03-01T11:24:59;22.00;;;11.57;;
3068;SDS011;1545;51.728;8.796;2023-03-01T11:27:27;24.87;;;11.27;;
3068;SDS011;1545;51.728;8.796;2023-03-01T11:29:57;21.00;;;11.80;;
3068;SDS011;1545;51.728;8.796;2023-03-01T11:32:29;23.73;;;12.43;;
3068;SDS011;1545;51.728;8.796;2023-03-01T11:35:09;23.67;;;11.67;;
3068;SDS011;1545;51.728;8.796;2023-03-01T11:37:46;23.37;;;11.53;;
3068;SDS011;1545;51.728;8.796;2023-03-01T11:40:33;22.03;;;11.40;;
3068;SDS011;1545;51.728;8.796;2023-03-01T11:43:21;20.40;;;11.10;;
3068;SDS011;1545;51.728;8.796;2023-03-01T11:57:36;21.17;;;11.20;;
3068;SDS011;1545;51.728;8.796;2023-03-01T12:14:21;20.93;;;10.50;;
3068;SDS011;1545;51.728;8.796;2023-03-01T12:17:02;22.00;;;10.50;;
3068;SDS011;1545;51.728;8.796;2023-03-01T12:20:02;22.13;;;10.93;;
3068;SDS011;1545;51.728;8.796;2023-03-01T12:28:04;21.20;;;11.27;;
3068;SDS011;1545;51.728;8.796;2023-03-01T12:33:17;19.80;;;11.03;;
3068;SDS011;1545;51.728;8.796;2023-03-01T12:41:09;22.00;;;10.90;;
3068;SDS011;1545;51.728;8.796;2023-03-01T12:55:02;16.80;;;9.53;;
3068;SDS011;1545;51.728;8.796;2023-03-01T12:58:46;19.33;;;10.23;;
3068;SDS011;1545;51.728;8.796;2023-03-01T13:03:25;22.97;;;10.13;;
3068;SDS011;1545;51.728;8.796;2023-03-01T13:06:11;18.67;;;9.03;;
3068;SDS011;1545;51.728;8.796;2023-03-01T13:09:11;24.60;;;10.07;;
3068;SDS011;1545;51.728;8.796;2023-03-01T13:17:47;22.30;;;10.37;;
3068;SDS011;1545;51.728;8.796;2023-03-01T13:20:15;20.23;;;9.93;;
3068;SDS011;1545;51.728;8.796;2023-03-01T13:22:42;22.60;;;10.03;;
3068;SDS011;1545;51.728;8.796;2023-03-01T13:25:18;21.13;;;10.40;;
3068;SDS011;1545;51.728;8.796;2023-03-01T13:27:45;20.67;;;10.77;;
3068;SDS011;1545;51.728;8.796;2023-03-01T13:30:57;20.33;;;10.80;;
3068;SDS011;1545;51.728;8.796;2023-03-01T13:35:53;24.97;;;10.77;;
3068;SDS011;1545;51.728;8.796;2023-03-01T13:41:12;20.50;;;11.00;;
3068;SDS011;1545;51.728;8.796;2023-03-01T13:44:01;21.07;;;10.03;;
3068;SDS011;1545;51.728;8.796;2023-03-01T13:46:36;22.03;;;9.73;;
3068;SDS011;1545;51.728;8.796;2023-03-01T13:49:03;18.07;;;11.10;;
3068;SDS011;1545;51.728;8.796;2023-03-01T13:51:28;21.57;;;10.73;;
3068;SDS011;1545;51.728;8.796;2023-03-01T13:53:55;18.43;;;10.27;;
3068;SDS011;1545;51.728;8.796;2023-03-01T13:56:27;22.97;;;10.73;;
3068;SDS011;1545;51.728;8.796;2023-03-01T13:58:59;22.03;;;10.70;;
3068;SDS011;1545;51.728;8.796;2023-03-01T14:03:57;23.67;;;10.40;;
3068;SDS011;1545;51.728;8.796;2023-03-01T14:06:31;23.27;;;10.77;;
3068;SDS011;1545;51.728;8.796;2023-03-01T14:09:02;18.03;;;9.87;;
3068;SDS011;1545;51.728;8.796;2023-03-01T14:14:09;19.70;;;10.93;;
3068;SDS011;1545;51.728;8.796;2023-03-01T14:17:06;22.47;;;11.30;;
3068;SDS011;1545;51.728;8.796;2023-03-01T14:19:55;22.37;;;11.20;;
3068;SDS011;1545;51.728;8.796;2023-03-01T14:22:24;28.47;;;11.57;;
3068;SDS011;1545;51.728;8.796;2023-03-01T14:25:04;25.03;;;12.17;;
3068;SDS011;1545;51.728;8.796;2023-03-01T14:27:41;17.90;;;10.70;;
3068;SDS011;1545;51.728;8.796;2023-03-01T14:32:59;21.27;;;11.57;;
3068;SDS011;1545;51.728;8.796;2023-03-01T14:35:33;21.63;;;11.90;;
3068;SDS011;1545;51.728;8.796;2023-03-01T14:38:00;25.97;;;12.00;;
3068;SDS011;1545;51.728;8.796;2023-03-01T14:40:28;25.27;;;12.43;;
3068;SDS011;1545;51.728;8.796;2023-03-01T14:42:56;22.20;;;11.93;;
3068;SDS011;1545;51.728;8.796;2023-03-01T14:45:24;25.13;;;11.60;;
3068;SDS011;1545;51.728;8.796;2023-03-01T14:47:51;22.87;;;12.37;;
3068;SDS011;1545;51.728;8.796;2023-03-01T14:50:23;25.40;;;13.40;;
3068;SDS011;1545;51.728;8.796;2023-03-01T14:52:52;25.80;;;12.10;;
3068;SDS011;1545;51.728;8.796;2023-03-01T14:55:21;27.17;;;12.60;;
3068;SDS011;1545;51.728;8.796;2023-03-01T14:58:02;25.93;;;13.17;;
3068;SDS011;1545;51.728;8.796;2023-03-01T15:00:30;33.33;;;12.53;;
3068;SDS011;1545;51.728;8.796;2023-03-01T15:02:58;28.90;;;12.30;;
3068;SDS011;1545;51.728;8.796;2023-03-01T15:05:35;26.83;;;12.57;;
3068;SDS011;1545;51.728;8.796;2023-03-01T15:08:02;20.77;;;11.43;;
3068;SDS011;1545;51.728;8.796;2023-03-01T15:10:30;21.70;;;11.50;;
3068;SDS011;1545;51.728;8.796;2023-03-01T15:16:01;20.47;;;11.63;;
3068;SDS011;1545;51.728;8.796;2023-03-01T15:18:30;23.90;;;11.50;;
3068;SDS011;1545;51.728;8.796;2023-03-01T15:21:04;22.47;;;11.53;;
3068;SDS011;1545;51.728;8.796;2023-03-01T15:23:32;23.70;;;12.37;;
3068;SDS011;1545;51.728;8.796;2023-03-01T15:25:58;24.23;;;12.47;;
3068;SDS011;1545;51.728;8.796;2023-03-01T15:28:30;21.73;;;12.00;;
3068;SDS011;1545;51.728;8.796;2023-03-01T15:31:00;26.13;;;12.27;;
3068;SDS011;1545;51.728;8.796;2023-03-01T15:33:36;25.93;;;12.50;;
3068;SDS011;1545;51.728;8.796;2023-03-01T15:36:03;24.97;;;11.60;;
3068;SDS011;1545;51.728;8.796;2023-03-01T15:39:01;29.17;;;12.20;;
3068;SDS011;1545;51.728;8.796;2023-03-01T15:41:28;29.60;;;11.93;;
3068;SDS011;1545;51.728;8.796;2023-03-01T15:43:56;45.73;;;13.03;;
3068;SDS011;1545;51.728;8.796;2023-03-01T15:48:59;24.23;;;11.63;;
3068;SDS011;1545;51.728;8.796;2023-03-01T15:51:29;27.00;;;12.63;;
3068;SDS011;1545;51.728;8.796;2023-03-01T15:54:12;20.57;;;11.67;;
3068;SDS011;1545;51.728;8.796;2023-03-01T15:56:44;30.90;;;11.90;;
3068;SDS011;1545;51.728;8.796;2023-03-01T15:59:09;22.70;;;11.73;;
3068;SDS011;1545;51.728;8.796;2023-03-01T16:01:38;24.13;;;11.77;;
3068;SDS011;1545;51.728;8.796;2023-03-01T16:04:04;39.97;;;22.57;;
3068;SDS011;1545;51.728;8.796;2023-03-01T16:06:29;21.43;;;11.10;;
3068;SDS011;1545;51.728;8.796;2023-03-01T16:08:55;21.00;;;11.27;;
3068;SDS011;1545;51.728;8.796;2023-03-01T16:11:20;21.03;;;10.37;;
3068;SDS011;1545;51.728;8.796;2023-03-01T16:13:46;20.67;;;10.90;;
3068;SDS011;1545;51.728;8.796;2023-03-01T16:16:13;25.13;;;11.10;;
3068;SDS011;1545;51.728;8.796;2023-03-01T16:18:44;19.33;;;11.03;;
3068;SDS011;1545;51.728;8.796;2023-03-01T16:21:12;26.97;;;11.47;;
3068;SDS011;1545;51.728;8.796;2023-03-01T16:23:40;22.63;;;10.70;;
3068;SDS011;1545;51.728;8.796;2023-03-01T16:26:07;26.57;;;10.87;;
3068;SDS011;1545;51.728;8.796;2023-03-01T16:28:34;22.80;;;11.00;;
3068;SDS011;1545;51.728;8.796;2023-03-01T16:30:59;21.30;;;10.57;;
3068;SDS011;1545;51.728;8.796;2023-03-01T16:33:26;23.73;;;10.90;;
3068;SDS011;1545;51.728;8.796;2023-03-01T16:35:51;21.00;;;10.63;;
3068;SDS011;1545;51.728;8.796;2023-03-01T16:38:17;19.97;;;9.90;;
3068;SDS011;1545;51.728;8.796;2023-03-01T16:40:46;20.03;;;10.30;;
3068;SDS011;1545;51.728;8.796;2023-03-01T16:43:13;20.00;;;10.10;;